Terminal Aerodrome Forecast
Issued by NWS Albany, NY

Current Version | Previous Version | Text Only | Print | Product List | Glossary On
Versions: 1 2 3 4 5 6 7 8 9 10 11 12 13 14 15 16 17
216 FTUS41 KALY 292322 TAFALB TAF KALB 292322Z 3000/3024 00000KT P6SM FEW120 FEW150 BKN260 FM300600 05009KT P6SM BKN100 OVC200 FM301500 01009KT P6SM VCSH SCT040 OVC100 FM302100 33007KT 4SM -SHRA OVC040=

USA.gov is the U.S. government's official web portal to all federal, state and local government web resources and services.